Time;durP1;ratioP1;P1;durP2;ratioP2;P2;SDS_P1;SDS_P2;PMS_P1;PMS_P2;Temp;Humidity;BMP_temperature;BMP_pressure;BME280_temperature;BME280_humidity;BME280_pressure;Samples;Min_cycle;Max_cycle;Signal;HPM_P1;HPM_P2
2022/05/12 00:01:19;;;;;;;10.13;1.88;;;12.70;99.90;;;;;;5053707;28;20589;-65
2022/05/12 00:03:45;;;;;;;7.05;1.33;;;12.60;99.90;;;;;;5069637;28;20048;-65
2022/05/12 00:06:11;;;;;;;7.22;1.90;;;12.60;99.90;;;;;;5053580;28;20059;-65
2022/05/12 00:08:36;;;;;;;5.50;1.55;;;12.60;99.90;;;;;;5051637;28;20115;-65
2022/05/12 00:11:03;;;;;;;4.88;1.70;;;12.50;99.90;;;;;;5049562;28;20049;-65
2022/05/12 00:13:28;;;;;;;4.65;1.30;;;12.50;99.90;;;;;;5071581;28;20090;-65
2022/05/12 00:15:55;;;;;;;5.35;1.48;;;12.50;99.90;;;;;;5053925;28;20403;-65
2022/05/12 00:18:20;;;;;;;5.60;1.40;;;12.50;99.90;;;;;;5051595;28;20052;-65
2022/05/12 00:20:46;;;;;;;6.45;1.60;;;12.40;99.90;;;;;;5053370;28;20051;-65
2022/05/12 00:23:19;;;;;;;4.57;1.60;;;12.40;99.90;;;;;;5054046;28;20056;-64
2022/05/12 00:25:47;;;;;;;6.82;2.10;;;12.40;99.90;;;;;;5067753;28;20044;-64
2022/05/12 00:28:15;;;;;;;6.43;1.40;;;12.40;99.90;;;;;;5069388;28;20036;-65
2022/05/12 00:30:43;;;;;;;5.65;1.83;;;12.30;99.90;;;;;;5071684;28;20119;-65
2022/05/12 00:33:09;;;;;;;5.35;1.88;;;12.30;99.90;;;;;;5058429;28;20692;-65
2022/05/12 00:35:35;;;;;;;5.28;1.60;;;12.30;99.90;;;;;;5050940;28;20037;-65
2022/05/12 00:38:02;;;;;;;4.85;1.45;;;12.30;99.90;;;;;;5043148;28;20051;-64
2022/05/12 00:40:28;;;;;;;6.10;1.50;;;12.30;99.90;;;;;;5051346;28;20112;-65
2022/05/12 00:43:03;;;;;;;4.57;1.55;;;12.20;99.90;;;;;;5050834;28;20498;-66
2022/05/12 00:45:32;;;;;;;6.07;1.58;;;12.20;99.90;;;;;;5039320;28;20549;-66
2022/05/12 00:47:58;;;;;;;4.72;1.30;;;12.10;99.90;;;;;;5071178;28;20040;-64
2022/05/12 00:50:38;;;;;;;6.20;1.63;;;12.10;99.90;;;;;;5071013;28;20040;-64
2022/05/12 00:53:06;;;;;;;3.25;1.50;;;12.10;99.90;;;;;;5051236;28;20490;-65
2022/05/12 00:55:36;;;;;;;3.35;1.60;;;12.10;99.90;;;;;;5042189;28;20052;-65
2022/05/12 00:58:06;;;;;;;3.28;1.17;;;12.10;99.90;;;;;;5070449;28;20115;-66
2022/05/12 01:00:31;;;;;;;3.58;1.30;;;12.00;99.90;;;;;;5070925;28;20056;-64
2022/05/12 01:03:01;;;;;;;3.97;1.40;;;12.00;99.90;;;;;;5040998;28;20041;-66
2022/05/12 01:05:29;;;;;;;4.32;1.42;;;12.00;99.90;;;;;;5032761;28;20040;-66
2022/05/12 01:07:56;;;;;;;3.45;1.20;;;11.90;99.90;;;;;;5063084;28;20044;-66
2022/05/12 01:10:23;;;;;;;4.45;1.30;;;11.90;99.90;;;;;;5065127;28;20086;-65
2022/05/12 01:12:49;;;;;;;6.15;1.80;;;11.90;99.90;;;;;;5068640;28;20048;-66
2022/05/12 01:15:17;;;;;;;3.75;1.67;;;11.90;99.90;;;;;;5070642;28;20498;-66
2022/05/12 01:17:43;;;;;;;4.50;1.50;;;11.80;99.90;;;;;;5070699;28;20040;-65
2022/05/12 01:20:11;;;;;;;3.67;1.30;;;11.80;99.90;;;;;;5071247;28;20115;-65
2022/05/12 01:22:55;;;;;;;4.13;1.08;;;11.80;99.90;;;;;;5051744;28;20658;-65
2022/05/12 01:25:25;;;;;;;2.97;1.38;;;11.80;99.90;;;;;;5046163;28;20040;-66
2022/05/12 01:27:51;;;;;;;5.55;1.45;;;11.70;99.90;;;;;;5057378;28;20044;-65
2022/05/12 01:30:19;;;;;;;4.53;1.40;;;11.80;99.90;;;;;;5052248;28;20125;-66
2022/05/12 01:32:46;;;;;;;3.75;1.80;;;11.80;99.90;;;;;;5052338;28;20044;-65
2022/05/12 01:35:13;;;;;;;5.30;1.20;;;11.70;99.90;;;;;;5050455;28;20048;-66
2022/05/12 01:37:40;;;;;;;2.63;1.33;;;11.70;99.90;;;;;;5065701;28;20575;-65
2022/05/12 01:40:07;;;;;;;4.18;1.30;;;11.70;99.90;;;;;;5052338;28;20075;-66
2022/05/12 01:42:32;;;;;;;4.78;1.90;;;11.70;99.90;;;;;;5069687;28;20049;-63
2022/05/12 01:44:58;;;;;;;5.18;1.40;;;11.70;99.90;;;;;;5068894;28;20044;-66
2022/05/12 01:47:23;;;;;;;5.07;1.48;;;11.70;99.90;;;;;;5073569;28;20540;-66
2022/05/12 01:49:50;;;;;;;3.22;1.40;;;11.60;99.90;;;;;;5067700;28;20483;-65
2022/05/12 01:52:16;;;;;;;7.95;1.63;;;11.60;99.90;;;;;;5049195;28;20040;-65
2022/05/12 01:54:41;;;;;;;5.05;1.80;;;11.60;99.90;;;;;;5056182;28;20048;-65
2022/05/12 01:57:08;;;;;;;3.17;1.80;;;11.50;99.90;;;;;;5056427;28;20174;-63
2022/05/12 01:59:34;;;;;;;2.80;1.23;;;11.50;99.90;;;;;;5053808;28;20036;-66
2022/05/12 02:02:00;;;;;;;6.47;1.65;;;11.40;99.90;;;;;;5065054;28;20044;-65
2022/05/12 02:04:25;;;;;;;2.55;1.45;;;11.40;99.90;;;;;;5073953;28;20044;-65
2022/05/12 02:06:51;;;;;;;3.80;1.55;;;11.40;99.90;;;;;;5073992;28;20423;-66
2022/05/12 02:09:17;;;;;;;6.20;1.40;;;11.40;99.90;;;;;;5055721;28;20040;-66
2022/05/12 02:11:43;;;;;;;4.10;1.58;;;11.40;99.90;;;;;;5071788;28;20036;-66
2022/05/12 02:14:09;;;;;;;4.55;2.00;;;11.30;99.90;;;;;;5054742;28;20086;-66
2022/05/12 02:16:35;;;;;;;3.45;1.58;;;11.30;99.90;;;;;;5071868;28;20032;-66
2022/05/12 02:19:04;;;;;;;4.75;1.83;;;11.30;99.90;;;;;;5069280;28;20052;-65
2022/05/12 02:21:30;;;;;;;6.97;1.75;;;11.20;99.90;;;;;;5055556;28;20236;-63
2022/05/12 02:23:55;;;;;;;9.85;2.03;;;11.20;99.90;;;;;;5056030;28;20052;-65
2022/05/12 02:26:22;;;;;;;7.13;2.35;;;11.20;99.90;;;;;;5055914;28;20506;-65
2022/05/12 02:28:48;;;;;;;6.75;1.90;;;11.20;99.90;;;;;;5055382;28;20044;-66
2022/05/12 02:31:13;;;;;;;5.95;1.90;;;11.10;99.90;;;;;;5072685;28;20056;-66
2022/05/12 02:33:39;;;;;;;6.43;1.83;;;11.10;99.90;;;;;;5066833;28;20052;-65
2022/05/12 02:36:05;;;;;;;5.38;2.03;;;11.10;99.90;;;;;;5047304;28;20040;-65
2022/05/12 02:38:30;;;;;;;11.63;2.28;;;11.10;99.90;;;;;;5063443;28;20542;-65
2022/05/12 02:40:56;;;;;;;8.32;2.47;;;11.10;99.90;;;;;;5062430;28;20112;-64
2022/05/12 02:43:24;;;;;;;7.57;1.77;;;11.10;99.90;;;;;;5055990;28;20036;-65
2022/05/12 02:46:01;;;;;;;7.03;2.35;;;11.00;99.90;;;;;;5073613;28;20040;-66
2022/05/12 02:48:32;;;;;;;12.13;2.78;;;11.00;99.90;;;;;;5065928;28;20040;-66
2022/05/12 02:50:58;;;;;;;7.45;2.25;;;11.00;99.90;;;;;;5067975;28;20043;-66
2022/05/12 02:53:24;;;;;;;7.82;2.03;;;10.90;99.90;;;;;;5071902;28;20418;-65
2022/05/12 02:55:50;;;;;;;8.80;2.10;;;10.90;99.90;;;;;;5073126;28;20506;-66
2022/05/12 02:58:16;;;;;;;10.00;2.13;;;10.90;99.90;;;;;;5054214;28;20036;-65
2022/05/12 03:00:42;;;;;;;7.38;2.03;;;10.90;99.90;;;;;;5058533;28;20079;-65
2022/05/12 03:03:08;;;;;;;7.53;2.15;;;10.90;99.90;;;;;;5067460;28;20049;-66
2022/05/12 03:05:36;;;;;;;7.70;2.25;;;10.90;99.90;;;;;;5038615;28;20045;-66
2022/05/12 03:08:01;;;;;;;8.35;2.10;;;10.90;99.90;;;;;;5054086;28;20409;-66
2022/05/12 03:10:27;;;;;;;10.27;2.50;;;10.90;99.90;;;;;;5054951;28;20048;-64
2022/05/12 03:12:53;;;;;;;9.38;2.50;;;10.90;99.90;;;;;;5072967;28;20565;-63
2022/05/12 03:15:19;;;;;;;7.22;2.30;;;10.90;99.90;;;;;;5064074;28;20036;-66
2022/05/12 03:17:45;;;;;;;11.32;2.45;;;10.90;99.90;;;;;;5063742;28;20040;-66
2022/05/12 03:20:17;;;;;;;11.60;2.78;;;10.80;99.90;;;;;;5050572;28;20032;-66
2022/05/12 03:22:43;;;;;;;11.55;2.33;;;10.80;99.90;;;;;;5054181;28;20036;-66
2022/05/12 03:25:11;;;;;;;8.18;2.60;;;10.80;99.90;;;;;;5049290;28;20498;-65
2022/05/12 03:27:37;;;;;;;8.65;2.30;;;10.80;99.90;;;;;;5054259;28;20119;-66
2022/05/12 03:30:07;;;;;;;8.25;2.63;;;10.80;99.90;;;;;;5052913;28;20037;-66
2022/05/12 03:32:33;;;;;;;10.07;3.10;;;10.70;99.90;;;;;;5061831;28;20044;-66
2022/05/12 03:34:58;;;;;;;12.43;3.00;;;10.70;99.90;;;;;;5054538;28;20048;-65
2022/05/12 03:37:24;;;;;;;8.90;2.72;;;10.70;99.90;;;;;;5054296;28;20402;-65
2022/05/12 03:39:49;;;;;;;11.73;2.75;;;10.60;99.90;;;;;;5072568;28;20044;-66
2022/05/12 03:42:16;;;;;;;7.53;2.60;;;10.60;99.90;;;;;;5072574;28;20037;-66
2022/05/12 03:44:53;;;;;;;7.85;2.72;;;10.60;99.90;;;;;;5053331;28;20368;-65
2022/05/12 03:47:21;;;;;;;10.90;2.85;;;10.60;99.90;;;;;;5050819;28;20052;-66
2022/05/12 03:49:48;;;;;;;11.43;2.78;;;10.60;99.90;;;;;;5051047;28;20162;-65
2022/05/12 03:52:13;;;;;;;10.43;2.88;;;10.60;99.90;;;;;;5072438;28;20059;-65
2022/05/12 03:54:40;;;;;;;10.43;3.28;;;10.60;99.90;;;;;;5054852;28;20548;-65
2022/05/12 03:57:06;;;;;;;10.38;3.10;;;10.60;99.90;;;;;;5054726;28;20045;-66
2022/05/12 03:59:38;;;;;;;11.90;3.30;;;10.60;99.90;;;;;;5053294;28;20402;-66
2022/05/12 04:02:05;;;;;;;11.07;3.33;;;10.50;99.90;;;;;;5066657;28;20154;-65
2022/05/12 04:04:31;;;;;;;12.57;3.90;;;10.60;99.90;;;;;;5070400;28;20530;-65
2022/05/12 04:06:57;;;;;;;11.88;3.83;;;10.60;99.90;;;;;;5072235;28;20044;-65
2022/05/12 04:09:23;;;;;;;10.63;4.00;;;10.50;99.90;;;;;;5050894;28;20079;-66
2022/05/12 04:11:48;;;;;;;12.35;3.97;;;10.50;99.90;;;;;;5054064;28;20153;-62
2022/05/12 04:14:14;;;;;;;11.48;4.22;;;10.60;99.90;;;;;;5054018;28;20051;-65
2022/05/12 04:16:40;;;;;;;11.15;4.18;;;10.60;99.90;;;;;;5060643;28;20060;-65
2022/05/12 04:19:06;;;;;;;11.00;4.22;;;10.60;99.90;;;;;;5068411;28;20518;-65
2022/05/12 04:21:34;;;;;;;15.73;4.93;;;10.60;99.90;;;;;;5072031;28;20090;-66
2022/05/12 04:24:01;;;;;;;12.45;5.25;;;10.50;99.90;;;;;;5071719;28;20402;-66
2022/05/12 04:26:27;;;;;;;11.90;5.10;;;10.50;99.90;;;;;;5052162;28;20040;-64
2022/05/12 04:28:53;;;;;;;14.70;6.00;;;10.50;99.90;;;;;;5051543;28;20041;-64
2022/05/12 04:31:19;;;;;;;9.73;5.13;;;10.50;99.90;;;;;;5067384;28;20048;-67
2022/05/12 04:36:28;;;;;;;14.27;5.28;;;10.60;99.90;;;;;;5052634;28;20044;-65
2022/05/12 04:38:54;;;;;;;11.38;5.53;;;10.60;99.90;;;;;;5060595;28;20520;-65
2022/05/12 04:41:19;;;;;;;14.18;6.00;;;10.60;99.90;;;;;;5053110;28;20107;-65
2022/05/12 04:43:45;;;;;;;12.00;5.90;;;10.60;99.90;;;;;;5071244;28;20045;-66
2022/05/12 04:46:11;;;;;;;13.02;6.40;;;10.60;99.90;;;;;;5069657;28;20089;-66
2022/05/12 04:48:38;;;;;;;15.35;6.28;;;10.60;99.90;;;;;;5061726;28;20045;-66
2022/05/12 04:51:04;;;;;;;11.95;6.32;;;10.60;99.90;;;;;;5069070;28;20044;-65
2022/05/12 04:53:30;;;;;;;13.38;6.50;;;10.70;99.90;;;;;;5061567;28;20110;-66
2022/05/12 04:55:56;;;;;;;16.98;6.80;;;10.70;99.90;;;;;;5072785;28;20395;-65
2022/05/12 04:58:22;;;;;;;13.63;6.13;;;10.70;99.90;;;;;;5087788;28;20084;-66
2022/05/12 05:00:47;;;;;;;11.68;6.25;;;10.70;99.90;;;;;;5069296;28;20368;-65
2022/05/12 05:03:13;;;;;;;13.32;6.25;;;10.70;99.90;;;;;;5049272;28;20055;-65
2022/05/12 05:05:39;;;;;;;12.55;5.78;;;10.70;99.90;;;;;;5065113;28;20040;-66
2022/05/12 05:08:06;;;;;;;14.75;6.03;;;10.70;99.90;;;;;;5034084;28;20036;-65
2022/05/12 05:10:33;;;;;;;11.90;6.60;;;10.70;99.90;;;;;;5067578;28;20033;-65
2022/05/12 05:12:59;;;;;;;12.65;5.82;;;10.80;99.90;;;;;;5052486;28;20048;-65
2022/05/12 05:15:25;;;;;;;16.23;6.65;;;10.80;99.90;;;;;;5073608;28;20028;-65
2022/05/12 05:17:51;;;;;;;13.65;5.93;;;10.90;99.90;;;;;;5061885;28;20402;-65
2022/05/12 05:20:21;;;;;;;15.05;6.35;;;10.90;99.90;;;;;;5051870;28;20554;-65
2022/05/12 05:22:47;;;;;;;13.68;6.70;;;10.90;99.90;;;;;;5072573;28;20033;-65
2022/05/12 05:25:14;;;;;;;17.90;6.68;;;11.00;99.90;;;;;;5073916;28;20128;-64
2022/05/12 05:27:40;;;;;;;16.15;7.40;;;11.00;99.90;;;;;;5073894;22;20040;-67
2022/05/12 05:30:09;;;;;;;17.25;6.95;;;11.00;99.90;;;;;;5041893;28;20475;-68
2022/05/12 05:32:35;;;;;;;15.48;6.63;;;11.00;99.90;;;;;;5042469;28;20080;-68
2022/05/12 05:35:00;;;;;;;17.02;7.50;;;11.10;99.90;;;;;;5044951;28;20037;-68
2022/05/12 05:37:26;;;;;;;21.42;7.80;;;11.10;99.90;;;;;;5039082;28;20491;-67
2022/05/12 05:39:51;;;;;;;18.45;7.70;;;11.10;99.90;;;;;;5041067;28;20111;-67
2022/05/12 05:42:20;;;;;;;18.95;8.57;;;11.10;99.90;;;;;;5050341;28;20033;-67
2022/05/12 05:44:46;;;;;;;20.02;7.82;;;11.40;99.90;;;;;;5048699;28;20040;-67
2022/05/12 05:47:11;;;;;;;20.10;8.82;;;11.20;99.90;;;;;;5041271;28;20045;-67
2022/05/12 05:49:37;;;;;;;19.48;8.40;;;11.20;99.90;;;;;;5038116;28;20037;-68
2022/05/12 05:54:49;;;;;;;17.17;8.40;;;11.30;99.90;;;;;;5043679;28;20041;-67
2022/05/12 05:57:23;;;;;;;17.45;8.13;;;11.40;99.90;;;;;;5046801;28;20048;-67
2022/05/12 05:59:50;;;;;;;16.10;8.00;;;11.40;99.90;;;;;;5049930;28;20047;-67
2022/05/12 06:02:16;;;;;;;21.45;8.88;;;11.40;99.90;;;;;;5048937;28;20033;-67
2022/05/12 06:04:41;;;;;;;21.50;8.48;;;11.50;99.90;;;;;;5049154;28;20052;-67
2022/05/12 06:07:07;;;;;;;19.70;8.25;;;11.60;99.90;;;;;;5046120;28;20136;-68
2022/05/12 06:09:33;;;;;;;14.77;8.05;;;11.60;99.90;;;;;;5047659;28;20514;-67
2022/05/12 06:11:58;;;;;;;18.17;8.32;;;11.70;99.90;;;;;;5049272;28;20033;-67
2022/05/12 06:14:24;;;;;;;21.90;7.88;;;11.70;99.90;;;;;;5047978;28;20482;-67
2022/05/12 06:16:50;;;;;;;16.25;7.18;;;11.80;99.90;;;;;;5048532;28;20044;-67
2022/05/12 06:19:17;;;;;;;17.70;7.63;;;11.80;99.90;;;;;;5042233;28;20419;-67
2022/05/12 06:21:43;;;;;;;16.98;7.40;;;11.90;99.90;;;;;;5040644;28;20045;-67
2022/05/12 06:24:09;;;;;;;16.30;7.50;;;11.90;99.90;;;;;;5046449;28;20047;-67
2022/05/12 06:26:34;;;;;;;19.52;7.22;;;12.00;99.90;;;;;;5041252;28;20405;-68
2022/05/12 06:29:00;;;;;;;18.90;7.28;;;12.00;99.90;;;;;;5047801;28;20040;-68
2022/05/12 06:31:29;;;;;;;18.52;6.93;;;12.10;99.90;;;;;;5049663;28;20043;-67
2022/05/12 06:33:57;;;;;;;11.82;6.35;;;12.10;99.90;;;;;;5049863;28;20403;-67
2022/05/12 06:36:23;;;;;;;17.40;6.40;;;12.20;99.90;;;;;;5052246;28;20045;-67
2022/05/12 06:38:49;;;;;;;15.15;6.60;;;12.20;99.90;;;;;;5053108;28;20107;-67
2022/05/12 06:41:14;;;;;;;18.65;7.25;;;12.30;99.90;;;;;;5050946;28;20038;-67
2022/05/12 06:43:45;;;;;;;15.95;6.15;;;12.30;99.90;;;;;;5050680;28;20071;-67
2022/05/12 06:46:12;;;;;;;16.05;6.20;;;12.30;99.90;;;;;;5047785;28;20056;-67
2022/05/12 06:48:38;;;;;;;16.58;6.88;;;12.40;99.90;;;;;;5050005;28;20044;-67
2022/05/12 06:51:03;;;;;;;12.57;6.35;;;12.40;99.90;;;;;;5050134;28;20045;-67
2022/05/12 06:53:29;;;;;;;12.05;6.28;;;12.50;99.90;;;;;;5052534;28;20045;-67
2022/05/12 06:55:55;;;;;;;18.25;6.28;;;12.50;99.90;;;;;;5053165;28;20037;-68
2022/05/12 06:58:20;;;;;;;18.05;6.13;;;12.60;99.90;;;;;;5046782;28;20480;-67
2022/05/12 07:00:46;;;;;;;15.15;5.55;;;12.60;99.90;;;;;;5043436;28;20472;-68
2022/05/12 07:03:16;;;;;;;16.45;6.20;;;12.70;99.90;;;;;;5047877;28;20542;-68
2022/05/12 07:05:42;;;;;;;13.88;5.45;;;12.70;99.90;;;;;;5042273;28;20507;-68
2022/05/12 07:08:09;;;;;;;14.18;6.05;;;12.80;99.90;;;;;;5047221;28;20084;-68
2022/05/12 07:10:34;;;;;;;12.32;5.95;;;12.90;99.90;;;;;;5047351;28;20052;-67
2022/05/12 07:13:00;;;;;;;15.27;5.57;;;12.90;99.90;;;;;;5049526;28;20040;-67
2022/05/12 07:15:27;;;;;;;14.38;5.40;;;13.00;99.90;;;;;;5048186;28;20037;-67
2022/05/12 07:17:55;;;;;;;11.80;5.18;;;13.00;99.90;;;;;;5046453;28;20050;-67
2022/05/12 07:28:36;;;;;;;16.05;5.30;;;13.20;99.90;;;;;;5035835;28;20034;-67
2022/05/12 07:31:03;;;;;;;14.50;4.97;;;13.30;99.90;;;;;;5040900;28;20053;-68
2022/05/12 07:33:34;;;;;;;11.10;4.53;;;13.30;99.90;;;;;;5037629;28;20033;-67
2022/05/12 07:36:03;;;;;;;12.85;4.43;;;13.40;99.90;;;;;;5042555;28;20100;-67
2022/05/12 07:38:29;;;;;;;11.05;4.88;;;13.40;99.90;;;;;;5039347;28;20118;-68
2022/05/12 07:40:54;;;;;;;14.90;4.68;;;13.50;99.90;;;;;;5036688;28;20486;-67
2022/05/12 07:43:20;;;;;;;12.52;5.00;;;13.50;99.90;;;;;;5034994;28;20033;-68
2022/05/12 07:45:47;;;;;;;12.75;4.85;;;13.60;99.90;;;;;;5043433;28;20411;-67
2022/05/12 07:48:13;;;;;;;14.25;4.40;;;13.70;99.90;;;;;;5040121;28;20521;-65
2022/05/12 07:50:39;;;;;;;11.00;4.00;;;13.70;99.90;;;;;;5038538;28;20033;-65
2022/05/12 07:53:06;;;;;;;10.85;3.90;;;13.80;99.90;;;;;;5038424;28;20042;-65
2022/05/12 07:55:32;;;;;;;10.75;4.47;;;13.90;99.90;;;;;;5037516;28;20083;-65
2022/05/12 07:57:58;;;;;;;15.65;4.32;;;14.00;99.90;;;;;;5038241;28;20110;-65
2022/05/12 08:00:24;;;;;;;12.90;4.22;;;14.10;99.90;;;;;;5034158;28;20037;-65
2022/05/12 08:02:51;;;;;;;9.98;4.40;;;14.20;99.90;;;;;;5042883;28;20499;-65
2022/05/12 08:05:18;;;;;;;9.15;4.13;;;14.30;99.90;;;;;;5044063;28;20047;-65
2022/05/12 08:07:45;;;;;;;11.65;4.18;;;14.40;99.90;;;;;;5039817;28;20029;-65
2022/05/12 08:10:11;;;;;;;12.27;4.18;;;14.50;99.90;;;;;;5039992;28;20540;-65
2022/05/12 08:12:37;;;;;;;8.25;3.30;;;14.60;99.90;;;;;;5039368;28;20033;-65
2022/05/12 08:15:04;;;;;;;10.65;3.42;;;14.70;99.90;;;;;;5046113;28;20041;-65
2022/05/12 08:17:30;;;;;;;15.82;3.47;;;14.70;99.90;;;;;;5038702;28;20045;-65
2022/05/12 08:19:55;;;;;;;10.20;3.40;;;14.70;99.90;;;;;;5036464;28;20033;-68
2022/05/12 08:22:21;;;;;;;9.25;3.47;;;14.70;99.90;;;;;;5044496;28;20064;-68
2022/05/12 08:24:46;;;;;;;10.60;3.25;;;14.80;99.90;;;;;;5042444;28;20037;-66
2022/05/12 08:27:13;;;;;;;11.93;3.22;;;14.90;99.90;;;;;;5040617;28;20487;-66
2022/05/12 08:29:41;;;;;;;11.23;3.40;;;15.10;99.90;;;;;;5025033;28;20059;-66
2022/05/12 08:32:07;;;;;;;9.60;3.25;;;15.30;99.90;;;;;;5034465;28;20042;-66
2022/05/12 08:34:33;;;;;;;9.90;3.28;;;15.50;99.90;;;;;;5033562;28;20132;-66
2022/05/12 08:36:58;;;;;;;5.65;2.80;;;15.80;99.90;;;;;;5035125;28;20033;-66
2022/05/12 08:39:24;;;;;;;7.35;2.75;;;15.90;99.90;;;;;;5032816;28;20040;-66
2022/05/12 08:42:01;;;;;;;9.35;2.60;;;15.90;99.90;;;;;;5031077;28;20037;-66
2022/05/12 08:44:29;;;;;;;10.80;2.72;;;16.10;99.90;;;;;;5045351;28;20513;-68
2022/05/12 08:46:58;;;;;;;8.38;2.60;;;16.40;99.90;;;;;;5035145;28;20566;-66
2022/05/12 08:49:41;;;;;;;11.25;2.40;;;16.60;99.90;;;;;;5041395;28;20073;-66
2022/05/12 08:52:38;;;;;;;8.68;2.40;;;16.80;99.90;;;;;;5035015;28;20080;-66
2022/05/12 08:55:29;;;;;;;9.10;2.30;;;16.90;99.90;;;;;;5035302;28;20069;-66
2022/05/12 08:58:06;;;;;;;5.05;2.00;;;16.90;99.90;;;;;;5039970;28;20600;-66
2022/05/12 09:00:54;;;;;;;9.00;2.55;;;17.00;99.80;;;;;;5042235;28;20041;-66
2022/05/12 09:03:40;;;;;;;8.23;2.70;;;17.20;99.90;;;;;;5019280;28;20049;-66
2022/05/12 09:06:19;;;;;;;6.22;2.33;;;17.30;99.60;;;;;;5048017;28;20459;-66
2022/05/12 09:08:53;;;;;;;5.75;2.33;;;17.50;99.80;;;;;;5033201;28;20115;-66
2022/05/12 09:11:38;;;;;;;7.35;2.70;;;17.70;99.20;;;;;;5043867;28;20053;-66
2022/05/12 09:14:11;;;;;;;6.88;2.25;;;18.00;98.50;;;;;;5044273;28;20047;-66
2022/05/12 09:16:36;;;;;;;5.55;2.35;;;18.20;97.80;;;;;;5045325;28;20041;-66
2022/05/12 09:19:02;;;;;;;7.75;2.70;;;18.40;97.30;;;;;;5040516;28;20037;-66
2022/05/12 09:21:37;;;;;;;7.28;2.55;;;18.40;97.20;;;;;;5040805;28;20029;-66
2022/05/12 09:24:04;;;;;;;7.00;2.20;;;18.60;95.60;;;;;;5049241;28;20048;-66
2022/05/12 09:26:31;;;;;;;5.88;2.03;;;18.70;94.00;;;;;;5049238;28;20049;-66
2022/05/12 09:29:10;;;;;;;5.47;2.25;;;18.80;93.50;;;;;;5050368;28;20402;-66
2022/05/12 09:31:36;;;;;;;7.30;2.10;;;18.80;92.80;;;;;;5048393;28;20045;-66
2022/05/12 09:34:23;;;;;;;6.30;2.10;;;18.80;93.10;;;;;;5050542;28;20495;-66
2022/05/12 09:36:50;;;;;;;8.02;2.20;;;18.90;92.80;;;;;;5048975;28;20441;-66
2022/05/12 09:39:36;;;;;;;5.90;1.80;;;18.90;91.10;;;;;;5050330;28;20502;-66
2022/05/12 09:42:03;;;;;;;5.03;1.52;;;18.90;88.30;;;;;;5050770;28;20075;-67
2022/05/12 09:44:31;;;;;;;5.15;1.70;;;18.90;88.30;;;;;;5049590;28;20459;-67
2022/05/12 09:47:20;;;;;;;5.68;1.90;;;19.00;87.00;;;;;;5050649;28;20063;-67
2022/05/12 09:49:46;;;;;;;5.25;1.77;;;19.20;87.10;;;;;;5030889;28;20041;-66
2022/05/12 09:52:28;;;;;;;6.53;1.48;;;19.30;85.60;;;;;;5030813;28;20048;-66
2022/05/12 09:55:10;;;;;;;4.47;1.50;;;19.50;81.30;;;;;;5030564;28;20038;-66
2022/05/12 09:57:44;;;;;;;5.53;1.90;;;19.40;81.20;;;;;;5030049;28;20491;-67
2022/05/12 10:00:32;;;;;;;6.68;1.75;;;19.40;79.60;;;;;;5029620;28;20037;-67
2022/05/12 10:09:20;;;;;;;5.47;1.90;;;19.60;79.40;;;;;;5054064;28;20423;-67
2022/05/12 10:11:49;;;;;;;5.55;1.50;;;19.70;77.50;;;;;;5054450;28;20045;-67
2022/05/12 10:14:44;;;;;;;6.13;1.88;;;19.70;77.00;;;;;;5052754;28;20559;-67
2022/05/12 10:17:35;;;;;;;7.88;2.20;;;19.80;75.20;;;;;;5053091;28;20048;-67
2022/05/12 10:20:32;;;;;;;6.55;2.22;;;19.90;75.80;;;;;;5054064;28;20037;-67
2022/05/12 10:23:39;;;;;;;5.38;1.90;;;19.90;76.00;;;;;;5040114;28;20052;-67
2022/05/12 10:26:31;;;;;;;7.25;2.13;;;20.10;74.10;;;;;;5033611;28;20056;-67
2022/05/12 10:29:05;;;;;;;9.02;2.15;;;20.10;73.80;;;;;;5052159;28;20048;-67
2022/05/12 10:31:36;;;;;;;5.88;2.15;;;20.20;73.80;;;;;;5054099;28;20112;-67
2022/05/12 10:34:19;;;;;;;5.80;1.92;;;20.20;70.10;;;;;;5053558;28;20040;-67
2022/05/12 10:36:57;;;;;;;8.55;2.50;;;20.20;70.10;;;;;;5052276;28;20045;-67
2022/05/12 10:39:41;;;;;;;7.90;2.40;;;20.30;70.80;;;;;;5051029;28;20068;-67
2022/05/12 10:42:28;;;;;;;5.07;1.70;;;20.20;71.50;;;;;;5052511;28;20115;-67
2022/05/12 10:45:15;;;;;;;7.15;2.40;;;20.20;68.10;;;;;;5052449;28;20045;-67
2022/05/12 10:48:11;;;;;;;6.00;2.00;;;20.20;66.00;;;;;;5051795;28;20491;-67
2022/05/12 10:50:48;;;;;;;5.63;1.77;;;20.20;65.40;;;;;;5052361;28;20041;-67
2022/05/12 10:53:22;;;;;;;4.47;2.08;;;20.40;67.40;;;;;;5035742;28;20049;-67
2022/05/12 10:56:16;;;;;;;6.85;2.13;;;20.60;65.00;;;;;;5051494;28;20082;-67
2022/05/12 10:59:12;;;;;;;5.68;2.00;;;20.60;64.20;;;;;;5052993;28;20501;-67
2022/05/12 11:01:49;;;;;;;4.72;1.63;;;20.60;67.50;;;;;;5053516;28;20047;-67
2022/05/12 11:04:38;;;;;;;5.22;1.80;;;20.80;65.80;;;;;;5053310;28;20045;-67
2022/05/12 11:07:13;;;;;;;4.60;1.90;;;21.00;65.40;;;;;;5053072;28;20033;-67
2022/05/12 11:09:47;;;;;;;5.13;2.00;;;21.20;63.10;;;;;;5053027;28;20037;-67
2022/05/12 11:12:23;;;;;;;8.00;2.08;;;21.30;62.50;;;;;;5051174;28;20040;-67
2022/05/12 11:15:09;;;;;;;4.93;1.60;;;21.20;62.40;;;;;;5031721;28;20084;-67
2022/05/12 11:17:44;;;;;;;8.98;1.73;;;21.40;63.40;;;;;;5032455;28;20491;-67
2022/05/12 11:20:23;;;;;;;3.35;1.48;;;21.60;60.60;;;;;;5032004;28;20267;-67
2022/05/12 11:23:18;;;;;;;7.63;1.65;;;21.70;59.60;;;;;;5032999;28;20048;-67
2022/05/12 11:26:06;;;;;;;5.97;1.80;;;21.80;58.70;;;;;;5033063;28;20073;-67
2022/05/12 11:32:09;;;;;;;6.15;1.83;;;21.70;55.60;;;;;;5021362;28;20037;-65
2022/05/12 11:34:37;;;;;;;3.42;2.05;;;21.40;57.30;;;;;;5039390;28;20045;-65
2022/05/12 11:37:28;;;;;;;5.20;1.80;;;21.30;56.30;;;;;;5052482;28;20370;-65
2022/05/12 11:39:57;;;;;;;5.97;2.17;;;21.30;54.40;;;;;;5051491;28;20106;-66
2022/05/12 11:44:23;;;;;;;3.90;1.52;;;21.20;55.50;;;;;;5052742;28;20045;-66
2022/05/12 11:45:38;;;;;;;5.50;1.95;;;21.30;56.10;;;;;;5052378;28;20052;-66
2022/05/12 11:48:36;;;;;;;5.15;1.70;;;21.50;53.40;;;;;;5050823;28;20064;-68
2022/05/12 11:51:20;;;;;;;3.25;1.33;;;21.40;54.20;;;;;;5052622;28;20044;-66
2022/05/12 11:53:55;;;;;;;5.22;1.45;;;21.50;55.80;;;;;;5052330;28;20045;-67
2022/05/12 11:56:40;;;;;;;2.92;1.85;;;21.60;55.20;;;;;;5047283;28;20510;-65
2022/05/12 11:59:25;;;;;;;2.58;1.45;;;21.60;55.80;;;;;;5029926;28;20123;-66
2022/05/12 12:01:55;;;;;;;6.38;1.67;;;21.90;57.10;;;;;;5045379;28;20399;-70
2022/05/12 12:04:48;;;;;;;3.05;1.30;;;22.10;53.30;;;;;;5045541;28;20041;-65
2022/05/12 12:07:31;;;;;;;7.25;1.67;;;22.10;49.50;;;;;;5046593;28;20076;-66
2022/05/12 12:10:24;;;;;;;4.63;1.20;;;22.00;51.30;;;;;;5039669;28;20172;-71
2022/05/12 12:13:05;;;;;;;4.32;1.48;;;21.90;49.00;;;;;;5045871;28;20041;-68
2022/05/12 12:15:33;;;;;;;5.22;1.50;;;21.90;48.40;;;;;;5048749;28;20045;-65
2022/05/12 12:18:00;;;;;;;5.45;1.70;;;21.80;50.50;;;;;;5042451;28;20043;-66
2022/05/12 12:20:32;;;;;;;4.00;1.30;;;21.90;51.90;;;;;;5048797;28;20036;-66
2022/05/12 12:23:18;;;;;;;4.50;1.42;;;21.90;51.30;;;;;;5048416;28;20052;-66
2022/05/12 12:25:54;;;;;;;3.25;1.38;;;21.90;51.10;;;;;;5042276;28;20170;-65
2022/05/12 12:28:26;;;;;;;4.28;1.30;;;22.10;50.60;;;;;;5043609;28;20041;-68
2022/05/12 12:30:55;;;;;;;;;;;22.10;48.80;;;;;;5047652;28;20044;-65
2022/05/12 12:33:24;;;;;;;4.00;1.45;;;22.10;49.50;;;;;;5047004;28;20382;-65
2022/05/12 12:36:08;;;;;;;4.43;1.30;;;22.10;50.70;;;;;;5044604;28;20041;-65
2022/05/12 12:38:51;;;;;;;3.20;1.42;;;22.10;50.90;;;;;;5049212;28;20044;-65
2022/05/12 12:41:29;;;;;;;4.78;1.65;;;22.00;48.70;;;;;;5044854;28;20047;-65
2022/05/12 12:44:04;;;;;;;2.22;1.30;;;21.90;49.30;;;;;;5044262;28;20044;-66
2022/05/12 12:46:45;;;;;;;4.50;1.50;;;21.80;50.20;;;;;;5044071;28;20073;-65
2022/05/12 12:49:21;;;;;;;5.10;1.40;;;21.90;49.50;;;;;;5024596;28;20041;-65
2022/05/12 12:51:57;;;;;;;7.15;1.40;;;21.90;48.90;;;;;;5049971;28;20047;-68
2022/05/12 12:57:16;;;;;;;4.57;1.50;;;22.10;50.50;;;;;;5041513;28;20390;-70
2022/05/12 12:59:56;;;;;;;6.55;1.58;;;22.20;50.40;;;;;;5043458;28;20033;-65
2022/05/12 13:02:42;;;;;;;5.25;1.83;;;22.50;50.40;;;;;;5050857;28;20037;-66
2022/05/12 13:05:10;;;;;;;4.93;1.60;;;22.50;49.20;;;;;;5049558;28;20032;-67
2022/05/12 13:07:37;;;;;;;9.30;1.70;;;22.40;48.40;;;;;;5049820;28;20375;-68
2022/05/12 13:10:10;;;;;;;4.97;1.70;;;22.30;50.10;;;;;;5045319;28;20047;-65
2022/05/12 13:12:36;;;;;;;4.53;1.60;;;21.90;49.40;;;;;;5042827;28;20569;-66
2022/05/12 13:15:16;;;;;;;4.00;1.60;;;21.60;49.50;;;;;;5042246;28;20154;-67
2022/05/12 13:17:48;;;;;;;4.38;2.30;;;21.30;49.60;;;;;;5038438;28;20037;-66
2022/05/12 13:20:22;;;;;;;6.43;1.65;;;21.10;50.40;;;;;;5039400;28;20076;-66
2022/05/12 13:22:53;;;;;;;4.45;1.70;;;21.10;51.20;;;;;;5057306;28;20159;-66
2022/05/12 13:25:31;;;;;;;6.47;1.83;;;21.20;50.40;;;;;;5043438;28;20120;-66
2022/05/12 13:27:57;;;;;;;3.90;1.70;;;21.30;50.60;;;;;;5039609;28;20040;-66